sensor_id;sensor_type;location;lat;lon;timestamp;P1;durP1;ratioP1;P2;durP2;ratioP2
37753;SDS011;23596;52.520;13.464;2022-11-20T00:00:57;60.47;;;24.13;;
37753;SDS011;23596;52.520;13.464;2022-11-20T00:03:33;65.68;;;22.75;;
37753;SDS011;23596;52.520;13.464;2022-11-20T00:05:59;58.30;;;23.73;;
37753;SDS011;23596;52.520;13.464;2022-11-20T00:08:26;57.85;;;23.50;;
37753;SDS011;23596;52.520;13.464;2022-11-20T00:10:51;61.13;;;23.60;;
37753;SDS011;23596;52.520;13.464;2022-11-20T00:13:17;55.20;;;22.63;;
37753;SDS011;23596;52.520;13.464;2022-11-20T00:15:42;63.07;;;23.83;;
37753;SDS011;23596;52.520;13.464;2022-11-20T00:18:08;55.33;;;21.63;;
37753;SDS011;23596;52.520;13.464;2022-11-20T00:20:34;63.00;;;23.83;;
37753;SDS011;23596;52.520;13.464;2022-11-20T00:22:59;65.37;;;24.07;;
37753;SDS011;23596;52.520;13.464;2022-11-20T00:25:25;60.83;;;21.97;;
37753;SDS011;23596;52.520;13.464;2022-11-20T00:27:50;66.67;;;25.17;;
37753;SDS011;23596;52.520;13.464;2022-11-20T00:30:16;57.03;;;23.80;;
37753;SDS011;23596;52.520;13.464;2022-11-20T00:32:42;58.73;;;21.30;;
37753;SDS011;23596;52.520;13.464;2022-11-20T00:35:07;56.50;;;22.27;;
37753;SDS011;23596;52.520;13.464;2022-11-20T00:37:33;52.00;;;21.70;;
37753;SDS011;23596;52.520;13.464;2022-11-20T00:39:58;54.33;;;22.00;;
37753;SDS011;23596;52.520;13.464;2022-11-20T00:42:24;60.07;;;22.80;;
37753;SDS011;23596;52.520;13.464;2022-11-20T00:44:50;51.70;;;20.90;;
37753;SDS011;23596;52.520;13.464;2022-11-20T00:47:15;54.27;;;21.20;;
37753;SDS011;23596;52.520;13.464;2022-11-20T00:49:41;57.30;;;22.60;;
37753;SDS011;23596;52.520;13.464;2022-11-20T00:52:06;51.70;;;21.27;;
37753;SDS011;23596;52.520;13.464;2022-11-20T00:54:32;57.30;;;20.77;;
37753;SDS011;23596;52.520;13.464;2022-11-20T00:56:57;50.33;;;21.67;;
37753;SDS011;23596;52.520;13.464;2022-11-20T00:59:23;57.00;;;21.20;;
37753;SDS011;23596;52.520;13.464;2022-11-20T01:01:49;61.77;;;21.67;;
37753;SDS011;23596;52.520;13.464;2022-11-20T01:04:14;52.20;;;20.60;;
37753;SDS011;23596;52.520;13.464;2022-11-20T01:06:40;54.57;;;20.53;;
37753;SDS011;23596;52.520;13.464;2022-11-20T01:09:13;50.93;;;21.40;;
37753;SDS011;23596;52.520;13.464;2022-11-20T01:11:43;50.28;;;20.70;;
37753;SDS011;23596;52.520;13.464;2022-11-20T01:14:10;44.95;;;19.58;;
37753;SDS011;23596;52.520;13.464;2022-11-20T01:16:42;53.70;;;21.98;;
37753;SDS011;23596;52.520;13.464;2022-11-20T01:19:17;51.75;;;20.55;;
37753;SDS011;23596;52.520;13.464;2022-11-20T01:21:48;51.03;;;21.23;;
37753;SDS011;23596;52.520;13.464;2022-11-20T01:24:16;59.50;;;20.75;;
37753;SDS011;23596;52.520;13.464;2022-11-20T01:26:43;56.15;;;22.20;;
37753;SDS011;23596;52.520;13.464;2022-11-20T01:29:12;62.90;;;22.77;;
37753;SDS011;23596;52.520;13.464;2022-11-20T01:31:48;49.13;;;20.20;;
37753;SDS011;23596;52.520;13.464;2022-11-20T01:34:16;53.60;;;21.23;;
37753;SDS011;23596;52.520;13.464;2022-11-20T01:36:43;56.10;;;21.23;;
37753;SDS011;23596;52.520;13.464;2022-11-20T01:39:13;47.22;;;19.88;;
37753;SDS011;23596;52.520;13.464;2022-11-20T01:41:44;51.47;;;21.40;;
37753;SDS011;23596;52.520;13.464;2022-11-20T01:47:07;50.45;;;20.38;;
37753;SDS011;23596;52.520;13.464;2022-11-20T01:49:40;52.20;;;19.55;;
37753;SDS011;23596;52.520;13.464;2022-11-20T01:52:24;63.30;;;22.48;;
37753;SDS011;23596;52.520;13.464;2022-11-20T01:54:56;58.00;;;21.70;;
37753;SDS011;23596;52.520;13.464;2022-11-20T02:00:00;58.47;;;20.80;;
37753;SDS011;23596;52.520;13.464;2022-11-20T02:02:34;55.38;;;20.40;;
37753;SDS011;23596;52.520;13.464;2022-11-20T02:05:03;55.45;;;20.00;;
37753;SDS011;23596;52.520;13.464;2022-11-20T02:07:37;46.65;;;19.15;;
37753;SDS011;23596;52.520;13.464;2022-11-20T02:10:03;50.60;;;18.25;;
37753;SDS011;23596;52.520;13.464;2022-11-20T02:12:29;49.85;;;19.73;;
37753;SDS011;23596;52.520;13.464;2022-11-20T02:15:13;44.35;;;19.08;;
37753;SDS011;23596;52.520;13.464;2022-11-20T02:17:38;50.53;;;18.73;;
37753;SDS011;23596;52.520;13.464;2022-11-20T02:20:04;49.70;;;20.33;;
37753;SDS011;23596;52.520;13.464;2022-11-20T02:25:01;47.85;;;19.23;;
37753;SDS011;23596;52.520;13.464;2022-11-20T02:27:28;40.47;;;18.92;;
37753;SDS011;23596;52.520;13.464;2022-11-20T02:29:56;52.03;;;20.50;;
37753;SDS011;23596;52.520;13.464;2022-11-20T02:34:57;49.78;;;22.00;;
37753;SDS011;23596;52.520;13.464;2022-11-20T02:37:32;46.47;;;20.73;;
37753;SDS011;23596;52.520;13.464;2022-11-20T02:40:00;49.67;;;20.80;;
37753;SDS011;23596;52.520;13.464;2022-11-20T02:42:25;51.73;;;21.43;;
37753;SDS011;23596;52.520;13.464;2022-11-20T02:44:51;45.77;;;19.63;;
37753;SDS011;23596;52.520;13.464;2022-11-20T02:47:16;42.50;;;19.00;;
37753;SDS011;23596;52.520;13.464;2022-11-20T02:49:42;52.07;;;20.97;;
37753;SDS011;23596;52.520;13.464;2022-11-20T02:52:08;55.30;;;22.27;;
37753;SDS011;23596;52.520;13.464;2022-11-20T02:54:33;53.60;;;21.30;;
37753;SDS011;23596;52.520;13.464;2022-11-20T02:56:59;51.77;;;21.43;;
37753;SDS011;23596;52.520;13.464;2022-11-20T02:59:25;48.60;;;20.13;;
37753;SDS011;23596;52.520;13.464;2022-11-20T03:01:50;47.93;;;21.20;;
37753;SDS011;23596;52.520;13.464;2022-11-20T03:04:16;52.30;;;21.03;;
37753;SDS011;23596;52.520;13.464;2022-11-20T03:06:41;56.67;;;21.53;;
37753;SDS011;23596;52.520;13.464;2022-11-20T03:09:07;50.53;;;20.47;;
37753;SDS011;23596;52.520;13.464;2022-11-20T03:11:33;53.00;;;20.60;;
37753;SDS011;23596;52.520;13.464;2022-11-20T03:14:01;58.93;;;21.73;;
37753;SDS011;23596;52.520;13.464;2022-11-20T03:16:28;48.28;;;20.27;;
37753;SDS011;23596;52.520;13.464;2022-11-20T03:18:53;48.73;;;19.30;;
37753;SDS011;23596;52.520;13.464;2022-11-20T03:21:19;44.47;;;19.17;;
37753;SDS011;23596;52.520;13.464;2022-11-20T03:23:45;50.10;;;20.53;;
37753;SDS011;23596;52.520;13.464;2022-11-20T03:26:12;51.40;;;20.57;;
37753;SDS011;23596;52.520;13.464;2022-11-20T03:28:40;48.55;;;20.33;;
37753;SDS011;23596;52.520;13.464;2022-11-20T03:31:08;51.30;;;20.02;;
37753;SDS011;23596;52.520;13.464;2022-11-20T03:33:35;46.33;;;20.73;;
37753;SDS011;23596;52.520;13.464;2022-11-20T03:36:02;50.73;;;20.60;;
37753;SDS011;23596;52.520;13.464;2022-11-20T03:38:32;47.38;;;20.73;;
37753;SDS011;23596;52.520;13.464;2022-11-20T03:41:02;48.40;;;20.77;;
37753;SDS011;23596;52.520;13.464;2022-11-20T03:43:29;51.63;;;20.77;;
37753;SDS011;23596;52.520;13.464;2022-11-20T03:45:55;54.63;;;22.17;;
37753;SDS011;23596;52.520;13.464;2022-11-20T03:48:20;51.10;;;21.10;;
37753;SDS011;23596;52.520;13.464;2022-11-20T03:50:46;49.50;;;19.63;;
37753;SDS011;23596;52.520;13.464;2022-11-20T03:53:13;60.50;;;21.80;;
37753;SDS011;23596;52.520;13.464;2022-11-20T03:55:39;65.38;;;23.85;;
37753;SDS011;23596;52.520;13.464;2022-11-20T03:58:04;55.77;;;22.97;;
37753;SDS011;23596;52.520;13.464;2022-11-20T04:00:30;55.07;;;23.43;;
37753;SDS011;23596;52.520;13.464;2022-11-20T04:02:59;60.57;;;23.63;;
37753;SDS011;23596;52.520;13.464;2022-11-20T04:05:25;60.78;;;21.52;;
37753;SDS011;23596;52.520;13.464;2022-11-20T04:07:51;65.07;;;23.87;;
37753;SDS011;23596;52.520;13.464;2022-11-20T04:10:16;54.40;;;22.40;;
37753;SDS011;23596;52.520;13.464;2022-11-20T04:12:42;50.33;;;21.10;;
37753;SDS011;23596;52.520;13.464;2022-11-20T04:15:08;54.83;;;24.23;;
37753;SDS011;23596;52.520;13.464;2022-11-20T04:17:34;54.67;;;22.60;;
37753;SDS011;23596;52.520;13.464;2022-11-20T04:20:00;53.88;;;21.55;;
37753;SDS011;23596;52.520;13.464;2022-11-20T04:22:26;56.13;;;21.25;;
37753;SDS011;23596;52.520;13.464;2022-11-20T04:24:52;48.40;;;21.67;;
37753;SDS011;23596;52.520;13.464;2022-11-20T04:27:17;51.50;;;21.73;;
37753;SDS011;23596;52.520;13.464;2022-11-20T04:29:43;53.00;;;20.97;;
37753;SDS011;23596;52.520;13.464;2022-11-20T04:32:08;61.90;;;23.93;;
37753;SDS011;23596;52.520;13.464;2022-11-20T04:34:34;52.53;;;21.97;;
37753;SDS011;23596;52.520;13.464;2022-11-20T04:37:00;49.17;;;20.47;;
37753;SDS011;23596;52.520;13.464;2022-11-20T04:39:26;54.80;;;21.60;;
37753;SDS011;23596;52.520;13.464;2022-11-20T04:41:51;61.33;;;21.83;;
37753;SDS011;23596;52.520;13.464;2022-11-20T04:44:35;47.97;;;20.98;;
37753;SDS011;23596;52.520;13.464;2022-11-20T04:47:01;61.57;;;22.10;;
37753;SDS011;23596;52.520;13.464;2022-11-20T04:49:26;55.27;;;22.03;;
37753;SDS011;23596;52.520;13.464;2022-11-20T04:51:55;54.33;;;21.30;;
37753;SDS011;23596;52.520;13.464;2022-11-20T04:54:21;52.90;;;21.73;;
37753;SDS011;23596;52.520;13.464;2022-11-20T04:56:49;52.90;;;21.83;;
37753;SDS011;23596;52.520;13.464;2022-11-20T04:59:15;58.50;;;23.10;;
37753;SDS011;23596;52.520;13.464;2022-11-20T05:01:41;57.42;;;22.42;;
37753;SDS011;23596;52.520;13.464;2022-11-20T05:04:07;56.00;;;22.17;;
37753;SDS011;23596;52.520;13.464;2022-11-20T05:06:32;65.13;;;22.87;;
37753;SDS011;23596;52.520;13.464;2022-11-20T05:08:58;52.77;;;21.37;;
37753;SDS011;23596;52.520;13.464;2022-11-20T05:11:24;50.57;;;20.10;;
37753;SDS011;23596;52.520;13.464;2022-11-20T05:13:50;51.60;;;21.70;;
37753;SDS011;23596;52.520;13.464;2022-11-20T05:16:18;53.92;;;21.90;;
37753;SDS011;23596;52.520;13.464;2022-11-20T05:18:45;49.33;;;21.30;;
37753;SDS011;23596;52.520;13.464;2022-11-20T05:21:11;59.67;;;23.33;;
37753;SDS011;23596;52.520;13.464;2022-11-20T05:23:38;61.97;;;22.85;;
37753;SDS011;23596;52.520;13.464;2022-11-20T05:26:04;56.50;;;22.25;;
37753;SDS011;23596;52.520;13.464;2022-11-20T05:28:31;57.60;;;21.77;;
37753;SDS011;23596;52.520;13.464;2022-11-20T05:31:07;51.35;;;22.15;;
37753;SDS011;23596;52.520;13.464;2022-11-20T05:33:39;50.35;;;21.65;;
37753;SDS011;23596;52.520;13.464;2022-11-20T05:36:05;58.85;;;22.13;;
37753;SDS011;23596;52.520;13.464;2022-11-20T05:38:32;48.80;;;20.63;;
37753;SDS011;23596;52.520;13.464;2022-11-20T05:43:31;53.70;;;21.80;;
37753;SDS011;23596;52.520;13.464;2022-11-20T05:45:58;54.22;;;23.52;;
37753;SDS011;23596;52.520;13.464;2022-11-20T05:48:24;59.03;;;23.50;;
37753;SDS011;23596;52.520;13.464;2022-11-20T05:50:50;50.15;;;22.52;;
37753;SDS011;23596;52.520;13.464;2022-11-20T05:53:15;55.33;;;22.23;;
37753;SDS011;23596;52.520;13.464;2022-11-20T05:55:41;59.53;;;22.87;;
37753;SDS011;23596;52.520;13.464;2022-11-20T05:58:07;55.10;;;22.97;;
37753;SDS011;23596;52.520;13.464;2022-11-20T06:00:32;48.10;;;20.83;;
37753;SDS011;23596;52.520;13.464;2022-11-20T06:02:58;55.63;;;23.53;;
37753;SDS011;23596;52.520;13.464;2022-11-20T06:05:24;47.70;;;20.63;;
37753;SDS011;23596;52.520;13.464;2022-11-20T06:07:49;58.17;;;22.23;;
37753;SDS011;23596;52.520;13.464;2022-11-20T06:10:15;52.40;;;21.17;;
37753;SDS011;23596;52.520;13.464;2022-11-20T06:12:40;53.70;;;21.90;;
37753;SDS011;23596;52.520;13.464;2022-11-20T06:15:06;51.40;;;19.70;;
37753;SDS011;23596;52.520;13.464;2022-11-20T06:17:32;44.10;;;19.73;;
37753;SDS011;23596;52.520;13.464;2022-11-20T06:19:58;48.03;;;21.43;;
37753;SDS011;23596;52.520;13.464;2022-11-20T06:22:23;47.60;;;21.40;;
37753;SDS011;23596;52.520;13.464;2022-11-20T06:24:49;53.77;;;21.50;;
37753;SDS011;23596;52.520;13.464;2022-11-20T06:27:14;56.30;;;21.93;;
37753;SDS011;23596;52.520;13.464;2022-11-20T06:29:40;48.28;;;21.17;;
37753;SDS011;23596;52.520;13.464;2022-11-20T06:32:06;51.00;;;20.77;;
37753;SDS011;23596;52.520;13.464;2022-11-20T06:34:32;49.53;;;22.23;;
37753;SDS011;23596;52.520;13.464;2022-11-20T06:36:57;53.87;;;21.37;;
37753;SDS011;23596;52.520;13.464;2022-11-20T06:39:23;49.37;;;20.50;;
37753;SDS011;23596;52.520;13.464;2022-11-20T06:41:48;49.67;;;20.57;;
37753;SDS011;23596;52.520;13.464;2022-11-20T06:44:14;55.07;;;21.10;;
37753;SDS011;23596;52.520;13.464;2022-11-20T06:46:39;52.33;;;19.97;;
37753;SDS011;23596;52.520;13.464;2022-11-20T06:49:05;51.20;;;21.80;;
37753;SDS011;23596;52.520;13.464;2022-11-20T06:51:31;49.43;;;21.30;;
37753;SDS011;23596;52.520;13.464;2022-11-20T06:53:57;57.33;;;22.35;;
37753;SDS011;23596;52.520;13.464;2022-11-20T06:56:22;48.17;;;20.63;;
37753;SDS011;23596;52.520;13.464;2022-11-20T06:58:48;51.93;;;21.13;;
37753;SDS011;23596;52.520;13.464;2022-11-20T07:01:14;50.90;;;21.83;;
37753;SDS011;23596;52.520;13.464;2022-11-20T07:03:40;57.10;;;22.10;;
37753;SDS011;23596;52.520;13.464;2022-11-20T07:06:06;48.20;;;21.98;;
37753;SDS011;23596;52.520;13.464;2022-11-20T07:08:33;55.53;;;22.15;;
37753;SDS011;23596;52.520;13.464;2022-11-20T07:11:00;53.55;;;21.40;;
37753;SDS011;23596;52.520;13.464;2022-11-20T07:13:27;62.80;;;24.05;;
37753;SDS011;23596;52.520;13.464;2022-11-20T07:15:53;51.67;;;21.92;;
37753;SDS011;23596;52.520;13.464;2022-11-20T07:18:19;56.25;;;23.73;;
37753;SDS011;23596;52.520;13.464;2022-11-20T07:20:45;56.20;;;22.95;;
37753;SDS011;23596;52.520;13.464;2022-11-20T07:23:11;64.43;;;23.47;;
37753;SDS011;23596;52.520;13.464;2022-11-20T07:25:36;60.47;;;24.10;;
37753;SDS011;23596;52.520;13.464;2022-11-20T07:28:02;56.50;;;23.63;;
37753;SDS011;23596;52.520;13.464;2022-11-20T07:30:28;67.57;;;24.08;;
37753;SDS011;23596;52.520;13.464;2022-11-20T07:32:55;66.40;;;23.20;;
37753;SDS011;23596;52.520;13.464;2022-11-20T07:35:21;61.05;;;22.35;;
37753;SDS011;23596;52.520;13.464;2022-11-20T07:37:47;65.05;;;24.73;;
37753;SDS011;23596;52.520;13.464;2022-11-20T07:40:13;68.45;;;25.77;;
37753;SDS011;23596;52.520;13.464;2022-11-20T07:45:16;54.55;;;22.60;;
37753;SDS011;23596;52.520;13.464;2022-11-20T07:50:08;56.05;;;22.88;;
37753;SDS011;23596;52.520;13.464;2022-11-20T07:52:33;58.83;;;21.87;;
37753;SDS011;23596;52.520;13.464;2022-11-20T07:54:59;62.97;;;23.50;;
37753;SDS011;23596;52.520;13.464;2022-11-20T07:57:24;57.80;;;24.63;;
37753;SDS011;23596;52.520;13.464;2022-11-20T07:59:50;58.60;;;22.07;;
37753;SDS011;23596;52.520;13.464;2022-11-20T08:02:15;53.97;;;22.77;;
37753;SDS011;23596;52.520;13.464;2022-11-20T08:04:41;62.43;;;24.73;;
37753;SDS011;23596;52.520;13.464;2022-11-20T08:07:07;57.30;;;22.27;;
37753;SDS011;23596;52.520;13.464;2022-11-20T08:09:32;66.37;;;23.43;;
37753;SDS011;23596;52.520;13.464;2022-11-20T08:11:58;54.17;;;21.83;;
37753;SDS011;23596;52.520;13.464;2022-11-20T08:14:42;53.53;;;23.42;;
37753;SDS011;23596;52.520;13.464;2022-11-20T08:17:08;62.33;;;24.87;;
37753;SDS011;23596;52.520;13.464;2022-11-20T08:19:33;62.33;;;24.13;;
37753;SDS011;23596;52.520;13.464;2022-11-20T08:22:00;63.90;;;23.20;;
37753;SDS011;23596;52.520;13.464;2022-11-20T08:24:25;53.28;;;22.30;;
37753;SDS011;23596;52.520;13.464;2022-11-20T08:26:51;65.97;;;24.70;;
37753;SDS011;23596;52.520;13.464;2022-11-20T08:29:17;54.57;;;24.00;;
37753;SDS011;23596;52.520;13.464;2022-11-20T08:31:42;64.22;;;25.23;;
37753;SDS011;23596;52.520;13.464;2022-11-20T08:34:08;61.30;;;24.33;;
37753;SDS011;23596;52.520;13.464;2022-11-20T08:36:34;69.27;;;26.33;;
37753;SDS011;23596;52.520;13.464;2022-11-20T08:39:00;62.15;;;25.55;;
37753;SDS011;23596;52.520;13.464;2022-11-20T08:41:25;59.63;;;25.70;;
37753;SDS011;23596;52.520;13.464;2022-11-20T08:46:23;62.97;;;24.70;;
37753;SDS011;23596;52.520;13.464;2022-11-20T08:48:49;62.58;;;25.23;;
37753;SDS011;23596;52.520;13.464;2022-11-20T08:51:15;66.82;;;25.77;;
37753;SDS011;23596;52.520;13.464;2022-11-20T08:53:41;61.58;;;25.05;;
37753;SDS011;23596;52.520;13.464;2022-11-20T08:56:07;65.03;;;26.03;;
37753;SDS011;23596;52.520;13.464;2022-11-20T08:58:34;58.95;;;24.35;;
37753;SDS011;23596;52.520;13.464;2022-11-20T09:01:00;56.42;;;23.33;;
37753;SDS011;23596;52.520;13.464;2022-11-20T09:03:26;61.72;;;25.02;;
37753;SDS011;23596;52.520;13.464;2022-11-20T09:06:04;62.53;;;24.37;;
37753;SDS011;23596;52.520;13.464;2022-11-20T09:08:31;60.55;;;24.98;;
37753;SDS011;23596;52.520;13.464;2022-11-20T09:10:58;58.45;;;24.05;;
37753;SDS011;23596;52.520;13.464;2022-11-20T09:13:25;62.28;;;24.17;;
37753;SDS011;23596;52.520;13.464;2022-11-20T09:15:52;58.80;;;23.55;;
37753;SDS011;23596;52.520;13.464;2022-11-20T09:18:19;66.05;;;23.08;;
37753;SDS011;23596;52.520;13.464;2022-11-20T09:20:45;59.70;;;23.47;;
37753;SDS011;23596;52.520;13.464;2022-11-20T09:23:10;61.23;;;23.93;;
37753;SDS011;23596;52.520;13.464;2022-11-20T09:25:36;54.00;;;22.53;;
37753;SDS011;23596;52.520;13.464;2022-11-20T09:28:01;56.37;;;22.27;;
37753;SDS011;23596;52.520;13.464;2022-11-20T09:30:27;52.60;;;21.87;;
37753;SDS011;23596;52.520;13.464;2022-11-20T09:32:53;53.70;;;23.10;;
37753;SDS011;23596;52.520;13.464;2022-11-20T09:35:18;62.03;;;21.93;;
37753;SDS011;23596;52.520;13.464;2022-11-20T09:37:44;60.00;;;22.80;;
37753;SDS011;23596;52.520;13.464;2022-11-20T09:40:21;59.75;;;22.88;;
37753;SDS011;23596;52.520;13.464;2022-11-20T09:45:29;58.60;;;23.17;;
37753;SDS011;23596;52.520;13.464;2022-11-20T09:53:29;55.90;;;23.48;;
37753;SDS011;23596;52.520;13.464;2022-11-20T09:56:11;54.95;;;22.48;;
37753;SDS011;23596;52.520;13.464;2022-11-20T10:06:15;51.08;;;22.23;;
37753;SDS011;23596;52.520;13.464;2022-11-20T10:14:38;51.17;;;21.38;;
37753;SDS011;23596;52.520;13.464;2022-11-20T10:20:10;55.92;;;21.17;;
37753;SDS011;23596;52.520;13.464;2022-11-20T10:25:22;46.08;;;20.30;;
37753;SDS011;23596;52.520;13.464;2022-11-20T10:28:14;56.08;;;21.52;;
37753;SDS011;23596;52.520;13.464;2022-11-20T10:31:00;67.82;;;22.50;;
37753;SDS011;23596;52.520;13.464;2022-11-20T10:33:36;52.28;;;22.35;;
37753;SDS011;23596;52.520;13.464;2022-11-20T10:36:08;52.20;;;21.17;;
37753;SDS011;23596;52.520;13.464;2022-11-20T10:38:52;60.90;;;21.30;;
37753;SDS011;23596;52.520;13.464;2022-11-20T10:41:28;50.38;;;21.35;;
37753;SDS011;23596;52.520;13.464;2022-11-20T10:44:17;49.38;;;20.65;;
37753;SDS011;23596;52.520;13.464;2022-11-20T10:47:08;53.07;;;21.20;;
37753;SDS011;23596;52.520;13.464;2022-11-20T10:49:38;56.42;;;22.80;;
37753;SDS011;23596;52.520;13.464;2022-11-20T10:52:09;51.03;;;22.88;;
37753;SDS011;23596;52.520;13.464;2022-11-20T10:57:55;55.35;;;22.85;;
37753;SDS011;23596;52.520;13.464;2022-11-20T11:00:51;57.10;;;23.40;;
37753;SDS011;23596;52.520;13.464;2022-11-20T11:03:20;61.03;;;22.80;;
37753;SDS011;23596;52.520;13.464;2022-11-20T11:08:44;48.72;;;22.38;;
37753;SDS011;23596;52.520;13.464;2022-11-20T11:11:20;56.85;;;23.95;;
37753;SDS011;23596;52.520;13.464;2022-11-20T11:13:48;55.58;;;23.70;;
37753;SDS011;23596;52.520;13.464;2022-11-20T11:16:22;55.85;;;24.63;;
37753;SDS011;23596;52.520;13.464;2022-11-20T11:18:49;57.85;;;22.67;;
37753;SDS011;23596;52.520;13.464;2022-11-20T11:21:20;55.73;;;23.20;;
37753;SDS011;23596;52.520;13.464;2022-11-20T11:23:57;45.38;;;21.70;;
37753;SDS011;23596;52.520;13.464;2022-11-20T11:26:28;47.10;;;20.65;;
37753;SDS011;23596;52.520;13.464;2022-11-20T11:31:28;48.38;;;20.45;;
37753;SDS011;23596;52.520;13.464;2022-11-20T11:34:05;46.05;;;20.00;;
37753;SDS011;23596;52.520;13.464;2022-11-20T11:36:33;56.22;;;21.75;;
37753;SDS011;23596;52.520;13.464;2022-11-20T11:39:00;47.92;;;19.58;;
37753;SDS011;23596;52.520;13.464;2022-11-20T11:41:28;47.05;;;20.40;;
37753;SDS011;23596;52.520;13.464;2022-11-20T11:44:01;52.63;;;20.92;;
37753;SDS011;23596;52.520;13.464;2022-11-20T11:46:58;44.60;;;18.75;;
37753;SDS011;23596;52.520;13.464;2022-11-20T11:49:25;47.25;;;20.33;;
37753;SDS011;23596;52.520;13.464;2022-11-20T11:52:11;42.40;;;19.40;;
37753;SDS011;23596;52.520;13.464;2022-11-20T11:54:50;47.20;;;20.40;;
37753;SDS011;23596;52.520;13.464;2022-11-20T12:00:12;42.88;;;18.45;;
37753;SDS011;23596;52.520;13.464;2022-11-20T12:02:46;53.58;;;19.98;;
37753;SDS011;23596;52.520;13.464;2022-11-20T12:05:42;52.17;;;20.10;;
37753;SDS011;23596;52.520;13.464;2022-11-20T12:13:48;51.60;;;21.95;;
37753;SDS011;23596;52.520;13.464;2022-11-20T12:16:23;49.97;;;21.50;;
37753;SDS011;23596;52.520;13.464;2022-11-20T12:18:49;63.90;;;24.03;;
37753;SDS011;23596;52.520;13.464;2022-11-20T12:26:35;51.60;;;21.55;;
37753;SDS011;23596;52.520;13.464;2022-11-20T12:37:08;60.20;;;23.08;;
37753;SDS011;23596;52.520;13.464;2022-11-20T12:39:49;56.33;;;23.20;;
37753;SDS011;23596;52.520;13.464;2022-11-20T12:42:21;58.20;;;23.92;;
37753;SDS011;23596;52.520;13.464;2022-11-20T12:48:19;49.08;;;21.52;;
37753;SDS011;23596;52.520;13.464;2022-11-20T12:50:53;55.08;;;22.67;;
37753;SDS011;23596;52.520;13.464;2022-11-20T12:56:50;50.85;;;22.42;;
37753;SDS011;23596;52.520;13.464;2022-11-20T13:02:40;52.58;;;20.65;;
37753;SDS011;23596;52.520;13.464;2022-11-20T13:08:47;50.63;;;20.63;;
37753;SDS011;23596;52.520;13.464;2022-11-20T13:16:51;35.33;;;14.43;;
37753;SDS011;23596;52.520;13.464;2022-11-20T13:19:38;39.80;;;15.98;;
37753;SDS011;23596;52.520;13.464;2022-11-20T13:22:04;51.95;;;15.52;;
37753;SDS011;23596;52.520;13.464;2022-11-20T13:24:30;33.47;;;13.53;;
37753;SDS011;23596;52.520;13.464;2022-11-20T13:29:38;29.80;;;13.10;;
37753;SDS011;23596;52.520;13.464;2022-11-20T13:32:18;26.55;;;12.65;;
37753;SDS011;23596;52.520;13.464;2022-11-20T13:37:27;40.28;;;14.13;;
37753;SDS011;23596;52.520;13.464;2022-11-20T13:42:45;35.30;;;13.35;;
37753;SDS011;23596;52.520;13.464;2022-11-20T13:45:26;36.85;;;14.13;;
37753;SDS011;23596;52.520;13.464;2022-11-20T13:47:54;33.67;;;14.00;;
37753;SDS011;23596;52.520;13.464;2022-11-20T13:50:21;28.90;;;13.32;;
37753;SDS011;23596;52.520;13.464;2022-11-20T13:53:19;30.42;;;12.50;;
37753;SDS011;23596;52.520;13.464;2022-11-20T13:59:05;28.52;;;12.07;;
37753;SDS011;23596;52.520;13.464;2022-11-20T14:01:49;30.00;;;13.10;;
37753;SDS011;23596;52.520;13.464;2022-11-20T14:04:15;29.42;;;13.27;;
37753;SDS011;23596;52.520;13.464;2022-11-20T14:06:47;28.67;;;13.50;;
37753;SDS011;23596;52.520;13.464;2022-11-20T14:12:14;33.47;;;13.10;;
37753;SDS011;23596;52.520;13.464;2022-11-20T14:14:50;32.85;;;12.45;;
37753;SDS011;23596;52.520;13.464;2022-11-20T14:19:47;32.13;;;13.18;;
37753;SDS011;23596;52.520;13.464;2022-11-20T14:22:22;30.63;;;11.98;;
37753;SDS011;23596;52.520;13.464;2022-11-20T14:24:51;32.05;;;13.48;;
37753;SDS011;23596;52.520;13.464;2022-11-20T14:27:44;29.63;;;12.85;;
37753;SDS011;23596;52.520;13.464;2022-11-20T14:30:17;28.65;;;11.35;;
37753;SDS011;23596;52.520;13.464;2022-11-20T14:32:45;26.90;;;12.65;;
37753;SDS011;23596;52.520;13.464;2022-11-20T14:35:34;31.98;;;13.40;;
37753;SDS011;23596;52.520;13.464;2022-11-20T14:38:08;34.20;;;13.27;;
37753;SDS011;23596;52.520;13.464;2022-11-20T14:40:40;34.70;;;13.45;;
37753;SDS011;23596;52.520;13.464;2022-11-20T14:43:24;39.33;;;14.73;;
37753;SDS011;23596;52.520;13.464;2022-11-20T14:48:23;29.23;;;14.02;;
37753;SDS011;23596;52.520;13.464;2022-11-20T14:50:55;40.08;;;16.60;;
37753;SDS011;23596;52.520;13.464;2022-11-20T14:53:22;38.20;;;15.23;;
37753;SDS011;23596;52.520;13.464;2022-11-20T14:55:54;33.33;;;14.02;;
37753;SDS011;23596;52.520;13.464;2022-11-20T14:58:22;33.83;;;14.75;;
37753;SDS011;23596;52.520;13.464;2022-11-20T15:01:05;32.92;;;14.43;;
37753;SDS011;23596;52.520;13.464;2022-11-20T15:03:33;44.35;;;14.50;;
37753;SDS011;23596;52.520;13.464;2022-11-20T15:06:04;36.40;;;14.57;;
37753;SDS011;23596;52.520;13.464;2022-11-20T15:08:31;35.90;;;14.07;;
37753;SDS011;23596;52.520;13.464;2022-11-20T15:10:57;32.15;;;12.95;;
37753;SDS011;23596;52.520;13.464;2022-11-20T15:13:30;30.17;;;13.23;;
37753;SDS011;23596;52.520;13.464;2022-11-20T15:16:02;27.52;;;12.48;;
37753;SDS011;23596;52.520;13.464;2022-11-20T15:20:58;30.45;;;13.75;;
37753;SDS011;23596;52.520;13.464;2022-11-20T15:23:28;36.95;;;14.13;;
37753;SDS011;23596;52.520;13.464;2022-11-20T15:28:27;32.90;;;13.52;;
37753;SDS011;23596;52.520;13.464;2022-11-20T15:31:14;36.40;;;13.88;;
37753;SDS011;23596;52.520;13.464;2022-11-20T15:33:41;33.38;;;13.90;;
37753;SDS011;23596;52.520;13.464;2022-11-20T15:36:07;36.85;;;15.07;;
37753;SDS011;23596;52.520;13.464;2022-11-20T15:38:33;34.10;;;14.60;;
37753;SDS011;23596;52.520;13.464;2022-11-20T15:40:59;30.47;;;13.47;;
37753;SDS011;23596;52.520;13.464;2022-11-20T15:43:26;33.70;;;14.03;;
37753;SDS011;23596;52.520;13.464;2022-11-20T15:48:55;31.08;;;13.15;;
37753;SDS011;23596;52.520;13.464;2022-11-20T15:53:59;31.17;;;14.15;;
37753;SDS011;23596;52.520;13.464;2022-11-20T15:56:25;36.60;;;14.77;;
37753;SDS011;23596;52.520;13.464;2022-11-20T15:58:50;31.55;;;13.65;;
37753;SDS011;23596;52.520;13.464;2022-11-20T16:01:17;27.80;;;13.27;;
37753;SDS011;23596;52.520;13.464;2022-11-20T16:03:45;33.78;;;13.70;;
37753;SDS011;23596;52.520;13.464;2022-11-20T16:06:11;30.52;;;13.27;;
37753;SDS011;23596;52.520;13.464;2022-11-20T16:08:37;31.77;;;14.02;;
37753;SDS011;23596;52.520;13.464;2022-11-20T16:11:03;33.70;;;14.50;;
37753;SDS011;23596;52.520;13.464;2022-11-20T16:13:30;32.92;;;14.88;;
37753;SDS011;23596;52.520;13.464;2022-11-20T16:16:48;36.05;;;15.10;;
37753;SDS011;23596;52.520;13.464;2022-11-20T16:19:14;47.10;;;15.82;;
37753;SDS011;23596;52.520;13.464;2022-11-20T16:21:40;41.85;;;14.93;;
37753;SDS011;23596;52.520;13.464;2022-11-20T16:24:07;34.67;;;14.93;;
37753;SDS011;23596;52.520;13.464;2022-11-20T16:26:35;40.50;;;14.00;;